sensor_id;sensor_type;location;lat;lon;timestamp;pressure;altitude;pressure_sealevel;temperature;humidity
53719;BME280;39616;48.872;9.390;2023-02-21T00:00:00;98867.09;;;1.78;100.00
53719;BME280;39616;48.872;9.390;2023-02-21T00:02:49;98866.88;;;1.79;100.00
53719;BME280;39616;48.872;9.390;2023-02-21T00:05:37;98862.13;;;1.81;100.00
53719;BME280;39616;48.872;9.390;2023-02-21T00:08:26;98854.47;;;1.85;100.00
53719;BME280;39616;48.872;9.390;2023-02-21T00:11:15;98849.03;;;1.91;100.00
53719;BME280;39616;48.872;9.390;2023-02-21T00:14:04;98853.34;;;2.04;100.00
53719;BME280;39616;48.872;9.390;2023-02-21T00:16:53;98848.38;;;2.08;100.00
53719;BME280;39616;48.872;9.390;2023-02-21T00:19:42;98847.91;;;2.11;100.00
53719;BME280;39616;48.872;9.390;2023-02-21T00:22:31;98854.88;;;2.12;100.00
53719;BME280;39616;48.872;9.390;2023-02-21T00:25:19;98855.94;;;2.11;100.00
53719;BME280;39616;48.872;9.390;2023-02-21T00:28:08;98851.50;;;2.05;100.00
53719;BME280;39616;48.872;9.390;2023-02-21T00:30:57;98848.09;;;1.98;100.00
53719;BME280;39616;48.872;9.390;2023-02-21T00:33:46;98841.44;;;1.88;100.00
53719;BME280;39616;48.872;9.390;2023-02-21T00:36:35;98856.53;;;1.83;100.00
53719;BME280;39616;48.872;9.390;2023-02-21T00:39:25;98853.50;;;1.79;100.00
53719;BME280;39616;48.872;9.390;2023-02-21T00:42:14;98841.06;;;1.73;100.00
53719;BME280;39616;48.872;9.390;2023-02-21T00:45:03;98838.81;;;1.70;100.00
53719;BME280;39616;48.872;9.390;2023-02-21T00:47:52;98844.63;;;1.67;100.00
53719;BME280;39616;48.872;9.390;2023-02-21T00:50:40;98850.53;;;1.69;100.00
53719;BME280;39616;48.872;9.390;2023-02-21T00:53:29;98834.75;;;1.67;100.00
53719;BME280;39616;48.872;9.390;2023-02-21T00:56:18;98835.78;;;1.66;100.00
53719;BME280;39616;48.872;9.390;2023-02-21T00:59:07;98832.97;;;1.61;100.00
53719;BME280;39616;48.872;9.390;2023-02-21T01:01:56;98835.63;;;1.61;100.00
53719;BME280;39616;48.872;9.390;2023-02-21T01:04:45;98834.63;;;1.62;100.00
53719;BME280;39616;48.872;9.390;2023-02-21T01:07:33;98835.19;;;1.64;100.00
53719;BME280;39616;48.872;9.390;2023-02-21T01:10:22;98832.66;;;1.69;100.00
53719;BME280;39616;48.872;9.390;2023-02-21T01:13:11;98836.59;;;1.67;100.00
53719;BME280;39616;48.872;9.390;2023-02-21T01:16:00;98836.59;;;1.67;100.00
53719;BME280;39616;48.872;9.390;2023-02-21T01:18:49;98832.50;;;1.64;100.00
53719;BME280;39616;48.872;9.390;2023-02-21T01:21:38;98833.56;;;1.63;100.00
53719;BME280;39616;48.872;9.390;2023-02-21T01:24:27;98831.56;;;1.59;100.00
53719;BME280;39616;48.872;9.390;2023-02-21T01:27:16;98840.25;;;1.54;100.00
53719;BME280;39616;48.872;9.390;2023-02-21T01:30:05;98834.09;;;1.54;100.00
53719;BME280;39616;48.872;9.390;2023-02-21T01:32:54;98832.34;;;1.48;100.00
53719;BME280;39616;48.872;9.390;2023-02-21T01:35:42;98833.34;;;1.47;100.00
53719;BME280;39616;48.872;9.390;2023-02-21T01:38:34;98829.28;;;1.44;100.00
53719;BME280;39616;48.872;9.390;2023-02-21T01:41:23;98824.16;;;1.42;100.00
53719;BME280;39616;48.872;9.390;2023-02-21T01:44:32;98819.63;;;1.43;100.00
53719;BME280;39616;48.872;9.390;2023-02-21T01:47:22;98822.91;;;1.45;100.00
53719;BME280;39616;48.872;9.390;2023-02-21T01:50:24;98816.81;;;1.38;100.00
53719;BME280;39616;48.872;9.390;2023-02-21T01:53:20;98817.94;;;1.30;100.00
53719;BME280;39616;48.872;9.390;2023-02-21T01:56:10;98808.50;;;1.28;100.00
53719;BME280;39616;48.872;9.390;2023-02-21T01:59:01;98815.94;;;1.26;100.00
53719;BME280;39616;48.872;9.390;2023-02-21T02:01:59;98811.41;;;1.26;100.00
53719;BME280;39616;48.872;9.390;2023-02-21T02:04:51;98811.63;;;1.25;100.00
53719;BME280;39616;48.872;9.390;2023-02-21T02:07:41;98807.34;;;1.24;100.00
53719;BME280;39616;48.872;9.390;2023-02-21T02:10:30;98801.53;;;1.27;100.00
53719;BME280;39616;48.872;9.390;2023-02-21T02:16:28;98809.56;;;1.27;100.00
53719;BME280;39616;48.872;9.390;2023-02-21T02:27:40;98801.31;;;1.10;100.00
53719;BME280;39616;48.872;9.390;2023-02-21T02:36:04;98793.69;;;1.13;100.00
53719;BME280;39616;48.872;9.390;2023-02-21T02:41:41;98791.19;;;1.00;100.00
53719;BME280;39616;48.872;9.390;2023-02-21T02:44:23;98793.09;;;0.93;100.00
53719;BME280;39616;48.872;9.390;2023-02-21T02:46:57;98798.06;;;0.89;100.00
53719;BME280;39616;48.872;9.390;2023-02-21T02:49:32;98793.53;;;0.90;100.00
53719;BME280;39616;48.872;9.390;2023-02-21T02:52:06;98795.16;;;0.91;100.00
53719;BME280;39616;48.872;9.390;2023-02-21T02:54:37;98794.41;;;0.84;100.00
53719;BME280;39616;48.872;9.390;2023-02-21T02:57:09;98790.75;;;0.85;100.00
53719;BME280;39616;48.872;9.390;2023-02-21T02:59:44;98797.75;;;0.79;100.00
53719;BME280;39616;48.872;9.390;2023-02-21T03:05:05;98786.84;;;0.81;100.00
53719;BME280;39616;48.872;9.390;2023-02-21T03:11:22;98791.81;;;0.77;100.00
53719;BME280;39616;48.872;9.390;2023-02-21T03:14:08;98792.50;;;0.72;100.00
53719;BME280;39616;48.872;9.390;2023-02-21T03:16:44;98791.06;;;0.70;100.00
53719;BME280;39616;48.872;9.390;2023-02-21T03:19:17;98785.00;;;0.63;100.00
53719;BME280;39616;48.872;9.390;2023-02-21T03:21:52;98794.75;;;0.51;100.00
53719;BME280;39616;48.872;9.390;2023-02-21T03:24:25;98781.94;;;0.41;100.00
53719;BME280;39616;48.872;9.390;2023-02-21T03:26:59;98792.81;;;0.39;100.00
53719;BME280;39616;48.872;9.390;2023-02-21T03:29:33;98794.91;;;0.37;100.00
53719;BME280;39616;48.872;9.390;2023-02-21T03:32:09;98790.00;;;0.34;100.00
53719;BME280;39616;48.872;9.390;2023-02-21T03:34:42;98789.31;;;0.39;100.00
53719;BME280;39616;48.872;9.390;2023-02-21T03:37:34;98788.28;;;0.40;100.00
53719;BME280;39616;48.872;9.390;2023-02-21T03:40:09;98788.28;;;0.40;100.00
53719;BME280;39616;48.872;9.390;2023-02-21T03:42:39;98783.56;;;0.42;100.00
53719;BME280;39616;48.872;9.390;2023-02-21T03:45:10;98787.03;;;0.42;100.00
53719;BME280;39616;48.872;9.390;2023-02-21T03:47:40;98788.66;;;0.43;100.00
53719;BME280;39616;48.872;9.390;2023-02-21T03:50:11;98784.38;;;0.42;100.00
53719;BME280;39616;48.872;9.390;2023-02-21T03:52:44;98786.81;;;0.44;100.00
53719;BME280;39616;48.872;9.390;2023-02-21T03:55:14;98781.94;;;0.41;100.00
53719;BME280;39616;48.872;9.390;2023-02-21T03:57:45;98784.81;;;0.39;100.00
53719;BME280;39616;48.872;9.390;2023-02-21T04:00:16;98784.97;;;0.44;100.00
53719;BME280;39616;48.872;9.390;2023-02-21T04:02:46;98789.28;;;0.45;100.00
53719;BME280;39616;48.872;9.390;2023-02-21T04:05:16;98790.53;;;0.43;100.00
53719;BME280;39616;48.872;9.390;2023-02-21T04:07:47;98787.84;;;0.43;100.00
53719;BME280;39616;48.872;9.390;2023-02-21T04:10:17;98793.38;;;0.48;100.00
53719;BME280;39616;48.872;9.390;2023-02-21T04:12:47;98794.19;;;0.48;100.00
53719;BME280;39616;48.872;9.390;2023-02-21T04:15:18;98793.78;;;0.45;100.00
53719;BME280;39616;48.872;9.390;2023-02-21T04:17:48;98787.84;;;0.43;100.00
53719;BME280;39616;48.872;9.390;2023-02-21T04:20:18;98793.41;;;0.41;100.00
53719;BME280;39616;48.872;9.390;2023-02-21T04:22:49;98786.72;;;0.32;100.00
53719;BME280;39616;48.872;9.390;2023-02-21T04:25:19;98795.38;;;0.28;100.00
53719;BME280;39616;48.872;9.390;2023-02-21T04:27:50;98792.56;;;0.22;100.00
53719;BME280;39616;48.872;9.390;2023-02-21T04:30:20;98793.41;;;0.16;100.00
53719;BME280;39616;48.872;9.390;2023-02-21T04:32:53;98788.13;;;0.10;100.00
53719;BME280;39616;48.872;9.390;2023-02-21T04:35:23;98783.59;;;0.10;100.00
53719;BME280;39616;48.872;9.390;2023-02-21T04:37:53;98787.78;;;-0.01;100.00
53719;BME280;39616;48.872;9.390;2023-02-21T04:40:23;98782.97;;;-0.10;100.00
53719;BME280;39616;48.872;9.390;2023-02-21T04:42:54;98790.69;;;-0.02;100.00
53719;BME280;39616;48.872;9.390;2023-02-21T04:45:24;98780.63;;;0.00;100.00
53719;BME280;39616;48.872;9.390;2023-02-21T04:47:54;98776.16;;;-0.06;100.00
53719;BME280;39616;48.872;9.390;2023-02-21T04:50:25;98776.59;;;-0.09;100.00
53719;BME280;39616;48.872;9.390;2023-02-21T04:52:56;98777.81;;;-0.12;100.00
53719;BME280;39616;48.872;9.390;2023-02-21T04:55:26;98772.91;;;-0.15;100.00
53719;BME280;39616;48.872;9.390;2023-02-21T04:57:56;98767.16;;;-0.12;100.00
53719;BME280;39616;48.872;9.390;2023-02-21T05:00:27;98777.00;;;-0.12;100.00
53719;BME280;39616;48.872;9.390;2023-02-21T05:02:57;98770.22;;;-0.08;100.00
53719;BME280;39616;48.872;9.390;2023-02-21T05:05:27;98781.09;;;-0.10;100.00
53719;BME280;39616;48.872;9.390;2023-02-21T05:07:58;98777.19;;;-0.07;100.00
53719;BME280;39616;48.872;9.390;2023-02-21T05:10:28;98779.69;;;-0.12;100.00
53719;BME280;39616;48.872;9.390;2023-02-21T05:12:58;98775.72;;;-0.03;100.00
53719;BME280;39616;48.872;9.390;2023-02-21T05:15:29;98773.06;;;-0.03;100.00
53719;BME280;39616;48.872;9.390;2023-02-21T05:17:59;98768.97;;;-0.06;100.00
53719;BME280;39616;48.872;9.390;2023-02-21T05:20:30;98768.50;;;0.04;100.00
53719;BME280;39616;48.872;9.390;2023-02-21T05:23:00;98766.97;;;0.15;100.00
53719;BME280;39616;48.872;9.390;2023-02-21T05:25:30;98760.16;;;0.19;100.00
53719;BME280;39616;48.872;9.390;2023-02-21T05:28:01;98767.50;;;0.23;100.00
53719;BME280;39616;48.872;9.390;2023-02-21T05:30:31;98761.56;;;0.21;100.00
53719;BME280;39616;48.872;9.390;2023-02-21T05:33:02;98759.03;;;0.33;100.00
53719;BME280;39616;48.872;9.390;2023-02-21T05:35:32;98759.44;;;0.30;100.00
53719;BME280;39616;48.872;9.390;2023-02-21T05:38:02;98763.03;;;0.17;100.00
53719;BME280;39616;48.872;9.390;2023-02-21T05:40:32;98757.75;;;0.11;100.00
53719;BME280;39616;48.872;9.390;2023-02-21T05:43:03;98761.31;;;0.05;100.00
53719;BME280;39616;48.872;9.390;2023-02-21T05:45:33;98766.25;;;0.01;100.00
53719;BME280;39616;48.872;9.390;2023-02-21T05:48:04;98765.00;;;0.04;100.00
53719;BME280;39616;48.872;9.390;2023-02-21T05:50:34;98770.41;;;-0.03;100.00
53719;BME280;39616;48.872;9.390;2023-02-21T05:53:05;98769.34;;;-0.02;100.00
53719;BME280;39616;48.872;9.390;2023-02-21T05:55:36;98784.44;;;-0.14;100.00
53719;BME280;39616;48.872;9.390;2023-02-21T05:58:06;98774.34;;;-0.12;100.00
53719;BME280;39616;48.872;9.390;2023-02-21T06:00:36;98765.31;;;-0.11;100.00
53719;BME280;39616;48.872;9.390;2023-02-21T06:03:07;98771.88;;;-0.07;100.00
53719;BME280;39616;48.872;9.390;2023-02-21T06:05:37;98772.69;;;-0.07;100.00
53719;BME280;39616;48.872;9.390;2023-02-21T06:08:08;98768.75;;;-0.04;100.00
53719;BME280;39616;48.872;9.390;2023-02-21T06:10:39;98771.97;;;0.05;100.00
53719;BME280;39616;48.872;9.390;2023-02-21T06:13:09;98782.22;;;0.08;100.00
53719;BME280;39616;48.872;9.390;2023-02-21T06:15:39;98787.53;;;0.08;100.00
53719;BME280;39616;48.872;9.390;2023-02-21T06:18:14;98790.78;;;0.10;100.00
53719;BME280;39616;48.872;9.390;2023-02-21T06:20:44;98787.47;;;0.14;100.00
53719;BME280;39616;48.872;9.390;2023-02-21T06:23:15;98797.06;;;0.22;100.00
53719;BME280;39616;48.872;9.390;2023-02-21T06:25:45;98792.09;;;0.26;100.00
53719;BME280;39616;48.872;9.390;2023-02-21T06:28:15;98781.22;;;0.27;100.00
53719;BME280;39616;48.872;9.390;2023-02-21T06:30:46;98784.28;;;0.31;100.00
53719;BME280;39616;48.872;9.390;2023-02-21T06:33:17;98786.03;;;0.37;100.00
53719;BME280;39616;48.872;9.390;2023-02-21T06:35:47;98784.66;;;0.34;100.00
53719;BME280;39616;48.872;9.390;2023-02-21T06:38:17;98782.41;;;0.31;100.00
53719;BME280;39616;48.872;9.390;2023-02-21T06:40:48;98783.66;;;0.29;100.00
53719;BME280;39616;48.872;9.390;2023-02-21T06:43:18;98782.84;;;0.28;100.00
53719;BME280;39616;48.872;9.390;2023-02-21T06:45:48;98777.13;;;0.24;100.00
53719;BME280;39616;48.872;9.390;2023-02-21T06:48:19;98777.13;;;0.24;100.00
53719;BME280;39616;48.872;9.390;2023-02-21T06:50:49;98774.03;;;0.28;100.00
53719;BME280;39616;48.872;9.390;2023-02-21T06:53:19;98772.38;;;0.33;100.00
53719;BME280;39616;48.872;9.390;2023-02-21T06:55:50;98771.69;;;0.38;100.00
53719;BME280;39616;48.872;9.390;2023-02-21T06:58:21;98777.59;;;0.40;100.00
53719;BME280;39616;48.872;9.390;2023-02-21T07:00:51;98774.69;;;0.48;100.00
53719;BME280;39616;48.872;9.390;2023-02-21T07:03:21;98778.00;;;0.62;100.00
53719;BME280;39616;48.872;9.390;2023-02-21T07:05:52;98779.69;;;0.81;100.00
53719;BME280;39616;48.872;9.390;2023-02-21T07:08:22;98779.81;;;1.05;100.00
53719;BME280;39616;48.872;9.390;2023-02-21T07:10:54;98784.38;;;1.34;100.00
53719;BME280;39616;48.872;9.390;2023-02-21T07:13:24;98778.91;;;1.59;100.00
53719;BME280;39616;48.872;9.390;2023-02-21T07:15:54;98775.16;;;1.90;100.00
53719;BME280;39616;48.872;9.390;2023-02-21T07:18:25;98772.56;;;2.26;100.00
53719;BME280;39616;48.872;9.390;2023-02-21T07:20:55;98768.84;;;2.62;97.89
53719;BME280;39616;48.872;9.390;2023-02-21T07:23:26;98774.50;;;2.89;94.08
53719;BME280;39616;48.872;9.390;2023-02-21T07:25:56;98768.84;;;3.26;94.23
53719;BME280;39616;48.872;9.390;2023-02-21T07:28:26;98760.47;;;3.51;88.69
53719;BME280;39616;48.872;9.390;2023-02-21T07:30:57;98763.97;;;3.80;89.36
53719;BME280;39616;48.872;9.390;2023-02-21T07:33:27;98762.59;;;4.11;87.27
53719;BME280;39616;48.872;9.390;2023-02-21T07:35:57;98757.31;;;4.50;86.82
53719;BME280;39616;48.872;9.390;2023-02-21T07:38:29;98760.09;;;4.60;83.82
53719;BME280;39616;48.872;9.390;2023-02-21T07:41:01;98761.38;;;4.74;83.19
53719;BME280;39616;48.872;9.390;2023-02-21T07:43:32;98759.16;;;4.88;82.36
53719;BME280;39616;48.872;9.390;2023-02-21T07:46:02;98763.94;;;5.25;81.85
53719;BME280;39616;48.872;9.390;2023-02-21T07:48:33;98766.56;;;5.42;80.16
53719;BME280;39616;48.872;9.390;2023-02-21T07:51:04;98768.13;;;5.65;78.40
53719;BME280;39616;48.872;9.390;2023-02-21T07:53:35;98768.53;;;6.00;77.50
53719;BME280;39616;48.872;9.390;2023-02-21T07:56:08;98765.59;;;6.39;75.33
53719;BME280;39616;48.872;9.390;2023-02-21T07:58:38;98770.38;;;6.27;75.17
53719;BME280;39616;48.872;9.390;2023-02-21T08:01:09;98772.84;;;6.34;75.22
53719;BME280;39616;48.872;9.390;2023-02-21T08:03:39;98772.75;;;6.23;76.09
53719;BME280;39616;48.872;9.390;2023-02-21T08:06:10;98774.84;;;6.48;74.25
53719;BME280;39616;48.872;9.390;2023-02-21T08:08:41;98772.03;;;6.70;73.69
53719;BME280;39616;48.872;9.390;2023-02-21T08:11:11;98763.09;;;6.65;74.07
53719;BME280;39616;48.872;9.390;2023-02-21T08:13:41;98769.78;;;6.57;74.98
53719;BME280;39616;48.872;9.390;2023-02-21T08:16:12;98772.41;;;6.94;73.01
53719;BME280;39616;48.872;9.390;2023-02-21T08:18:46;98770.94;;;7.19;72.92
53719;BME280;39616;48.872;9.390;2023-02-21T08:21:16;98779.06;;;7.29;71.91
53719;BME280;39616;48.872;9.390;2023-02-21T08:23:46;98775.81;;;7.22;73.57
53719;BME280;39616;48.872;9.390;2023-02-21T08:26:17;98772.50;;;8.03;70.06
53719;BME280;39616;48.872;9.390;2023-02-21T08:28:47;98775.50;;;8.53;68.14
53719;BME280;39616;48.872;9.390;2023-02-21T08:31:18;98766.75;;;9.07;68.25
53719;BME280;39616;48.872;9.390;2023-02-21T08:33:48;98762.97;;;9.62;64.90
53719;BME280;39616;48.872;9.390;2023-02-21T08:36:18;98773.09;;;9.47;64.53
53719;BME280;39616;48.872;9.390;2023-02-21T08:38:48;98774.84;;;9.02;65.85
53719;BME280;39616;48.872;9.390;2023-02-21T08:41:19;98770.03;;;8.99;67.13
53719;BME280;39616;48.872;9.390;2023-02-21T08:43:49;98775.28;;;9.39;65.78
53719;BME280;39616;48.872;9.390;2023-02-21T08:46:19;98766.59;;;9.92;63.91
53719;BME280;39616;48.872;9.390;2023-02-21T08:48:49;98764.88;;;10.06;62.81
53719;BME280;39616;48.872;9.390;2023-02-21T08:51:24;98760.69;;;10.24;62.90
53719;BME280;39616;48.872;9.390;2023-02-21T08:53:55;98759.88;;;10.24;62.84
53719;BME280;39616;48.872;9.390;2023-02-21T08:56:26;98766.81;;;10.69;63.16
53719;BME280;39616;48.872;9.390;2023-02-21T08:58:57;98762.16;;;11.66;60.21
53719;BME280;39616;48.872;9.390;2023-02-21T09:01:33;98759.09;;;12.10;58.07
53719;BME280;39616;48.872;9.390;2023-02-21T09:04:04;98752.22;;;12.64;56.01
53719;BME280;39616;48.872;9.390;2023-02-21T09:06:34;98760.50;;;12.40;55.55
53719;BME280;39616;48.872;9.390;2023-02-21T09:09:05;98752.59;;;12.57;55.05
53719;BME280;39616;48.872;9.390;2023-02-21T09:11:35;98757.44;;;12.61;55.84
53719;BME280;39616;48.872;9.390;2023-02-21T09:14:05;98757.63;;;12.50;56.11
53719;BME280;39616;48.872;9.390;2023-02-21T09:16:35;98760.09;;;13.62;54.76
53719;BME280;39616;48.872;9.390;2023-02-21T09:19:06;98750.84;;;13.63;54.39
53719;BME280;39616;48.872;9.390;2023-02-21T09:21:36;98754.97;;;13.05;54.57
53719;BME280;39616;48.872;9.390;2023-02-21T09:24:14;98750.53;;;14.01;53.09
53719;BME280;39616;48.872;9.390;2023-02-21T09:26:44;98743.34;;;14.50;50.40
53719;BME280;39616;48.872;9.390;2023-02-21T09:29:16;98747.94;;;13.96;51.63
53719;BME280;39616;48.872;9.390;2023-02-21T09:31:48;98747.13;;;14.18;51.96
53719;BME280;39616;48.872;9.390;2023-02-21T09:34:18;98747.19;;;14.49;50.54
53719;BME280;39616;48.872;9.390;2023-02-21T09:36:49;98736.25;;;15.03;48.72
53719;BME280;39616;48.872;9.390;2023-02-21T09:39:24;98752.03;;;14.52;49.98
53719;BME280;39616;48.872;9.390;2023-02-21T09:41:54;98736.16;;;15.25;48.04
53719;BME280;39616;48.872;9.390;2023-02-21T09:44:27;98731.28;;;16.05;45.83
53719;BME280;39616;48.872;9.390;2023-02-21T09:47:03;98732.75;;;16.11;46.80
53719;BME280;39616;48.872;9.390;2023-02-21T09:49:40;98724.34;;;16.42;44.46
53719;BME280;39616;48.872;9.390;2023-02-21T09:52:21;98728.53;;;16.40;43.95
53719;BME280;39616;48.872;9.390;2023-02-21T09:54:56;98731.88;;;16.46;44.00
53719;BME280;39616;48.872;9.390;2023-02-21T09:57:27;98733.69;;;16.33;45.06
53719;BME280;39616;48.872;9.390;2023-02-21T09:59:57;98731.44;;;15.17;46.60
53719;BME280;39616;48.872;9.390;2023-02-21T10:02:42;98730.63;;;16.34;44.71
53719;BME280;39616;48.872;9.390;2023-02-21T10:08:48;98739.41;;;15.44;47.18
53719;BME280;39616;48.872;9.390;2023-02-21T10:11:55;98734.91;;;15.40;46.34
53719;BME280;39616;48.872;9.390;2023-02-21T10:17:33;98733.59;;;14.58;47.88
53719;BME280;39616;48.872;9.390;2023-02-21T10:20:13;98741.34;;;14.42;47.97
53719;BME280;39616;48.872;9.390;2023-02-21T10:22:45;98736.09;;;14.00;48.77
53719;BME280;39616;48.872;9.390;2023-02-21T10:25:30;98732.31;;;14.10;47.38
53719;BME280;39616;48.872;9.390;2023-02-21T10:28:01;98732.28;;;13.88;47.10
53719;BME280;39616;48.872;9.390;2023-02-21T10:30:35;98741.56;;;13.50;47.87
53719;BME280;39616;48.872;9.390;2023-02-21T10:33:06;98743.16;;;13.65;47.97
53719;BME280;39616;48.872;9.390;2023-02-21T10:35:37;98742.00;;;13.30;48.02
53719;BME280;39616;48.872;9.390;2023-02-21T10:38:18;98742.41;;;13.37;48.71
53719;BME280;39616;48.872;9.390;2023-02-21T10:40:53;98736.09;;;13.64;48.13
53719;BME280;39616;48.872;9.390;2023-02-21T10:43:27;98737.81;;;13.60;48.06
53719;BME280;39616;48.872;9.390;2023-02-21T10:48:46;98730.44;;;13.74;47.48
53719;BME280;39616;48.872;9.390;2023-02-21T10:51:31;98736.69;;;13.61;47.69
53719;BME280;39616;48.872;9.390;2023-02-21T10:54:24;98728.94;;;13.91;47.00
53719;BME280;39616;48.872;9.390;2023-02-21T10:56:55;98733.13;;;14.11;46.90
53719;BME280;39616;48.872;9.390;2023-02-21T10:59:28;98725.78;;;13.97;47.50
53719;BME280;39616;48.872;9.390;2023-02-21T11:02:01;98724.56;;;14.80;46.68
53719;BME280;39616;48.872;9.390;2023-02-21T11:04:34;98723.28;;;14.77;46.44
53719;BME280;39616;48.872;9.390;2023-02-21T11:07:09;98723.91;;;14.74;46.48
53719;BME280;39616;48.872;9.390;2023-02-21T11:09:41;98713.63;;;15.19;45.64
53719;BME280;39616;48.872;9.390;2023-02-21T11:17:25;98696.31;;;15.41;45.28
53719;BME280;39616;48.872;9.390;2023-02-21T11:20:18;98685.13;;;15.78;44.22
53719;BME280;39616;48.872;9.390;2023-02-21T11:22:49;98683.22;;;15.69;44.66
53719;BME280;39616;48.872;9.390;2023-02-21T11:25:29;98679.63;;;15.43;45.41
53719;BME280;39616;48.872;9.390;2023-02-21T11:28:20;98667.28;;;15.80;44.31
53719;BME280;39616;48.872;9.390;2023-02-21T11:33:30;98665.69;;;15.70;44.01
53719;BME280;39616;48.872;9.390;2023-02-21T11:36:12;98660.97;;;15.36;44.70
53719;BME280;39616;48.872;9.390;2023-02-21T11:44:31;98654.00;;;15.04;45.39
53719;BME280;39616;48.872;9.390;2023-02-21T11:47:21;98650.81;;;15.11;45.40
53719;BME280;39616;48.872;9.390;2023-02-21T11:52:38;98629.94;;;15.32;45.65
53719;BME280;39616;48.872;9.390;2023-02-21T11:55:15;98634.41;;;15.11;45.41
53719;BME280;39616;48.872;9.390;2023-02-21T12:00:45;98623.72;;;15.66;45.89
53719;BME280;39616;48.872;9.390;2023-02-21T12:07:11;98611.50;;;15.73;44.64
53719;BME280;39616;48.872;9.390;2023-02-21T12:12:48;98602.78;;;15.88;44.54
53719;BME280;39616;48.872;9.390;2023-02-21T12:16:15;98595.22;;;15.85;44.32
53719;BME280;39616;48.872;9.390;2023-02-21T12:18:24;98588.94;;;16.02;44.36
53719;BME280;39616;48.872;9.390;2023-02-21T12:26:25;98579.63;;;15.85;43.71
53719;BME280;39616;48.872;9.390;2023-02-21T12:29:13;98574.16;;;15.59;44.76
53719;BME280;39616;48.872;9.390;2023-02-21T12:32:18;98567.75;;;15.73;44.98
53719;BME280;39616;48.872;9.390;2023-02-21T12:35:03;98556.03;;;15.29;46.15
53719;BME280;39616;48.872;9.390;2023-02-21T12:37:47;98555.53;;;15.70;44.81
53719;BME280;39616;48.872;9.390;2023-02-21T12:43:41;98537.00;;;15.76;44.58
53719;BME280;39616;48.872;9.390;2023-02-21T12:46:24;98530.22;;;15.90;44.73
53719;BME280;39616;48.872;9.390;2023-02-21T12:51:52;98519.53;;;16.15;46.02
53719;BME280;39616;48.872;9.390;2023-02-21T12:54:58;98519.72;;;16.10;44.60
53719;BME280;39616;48.872;9.390;2023-02-21T12:57:40;98517.56;;;16.24;45.82
53719;BME280;39616;48.872;9.390;2023-02-21T13:00:19;98512.94;;;16.46;44.37
53719;BME280;39616;48.872;9.390;2023-02-21T13:03:11;98498.56;;;16.28;44.04
53719;BME280;39616;48.872;9.390;2023-02-21T13:05:52;98502.59;;;16.51;44.34
53719;BME280;39616;48.872;9.390;2023-02-21T13:13:45;98484.69;;;15.94;45.17
53719;BME280;39616;48.872;9.390;2023-02-21T13:16:16;98473.38;;;16.05;44.58
53719;BME280;39616;48.872;9.390;2023-02-21T13:18:53;98469.91;;;16.25;44.74
53719;BME280;39616;48.872;9.390;2023-02-21T13:24:40;98467.13;;;16.34;44.98
53719;BME280;39616;48.872;9.390;2023-02-21T13:30:13;98456.75;;;16.18;45.08
53719;BME280;39616;48.872;9.390;2023-02-21T13:32:56;98456.06;;;15.92;45.49
53719;BME280;39616;48.872;9.390;2023-02-21T13:35:38;98444.53;;;16.16;45.71
53719;BME280;39616;48.872;9.390;2023-02-21T13:38:09;98441.50;;;16.09;45.38
53719;BME280;39616;48.872;9.390;2023-02-21T13:41:08;98433.56;;;16.16;45.62
53719;BME280;39616;48.872;9.390;2023-02-21T13:43:49;98430.81;;;15.95;45.76
53719;BME280;39616;48.872;9.390;2023-02-21T14:08:28;98393.28;;;15.57;46.75
53719;BME280;39616;48.872;9.390;2023-02-21T14:13:52;98388.91;;;15.74;45.87
53719;BME280;39616;48.872;9.390;2023-02-21T14:19:22;98383.91;;;15.76;46.63
53719;BME280;39616;48.872;9.390;2023-02-21T14:22:16;98377.03;;;15.69;47.94
53719;BME280;39616;48.872;9.390;2023-02-21T14:24:51;98375.91;;;15.70;48.04
53719;BME280;39616;48.872;9.390;2023-02-21T14:27:34;98377.75;;;15.40;48.25
53719;BME280;39616;48.872;9.390;2023-02-21T14:32:46;98375.56;;;15.16;49.52
53719;BME280;39616;48.872;9.390;2023-02-21T14:35:37;98371.44;;;15.10;49.72
53719;BME280;39616;48.872;9.390;2023-02-21T14:38:20;98366.13;;;15.14;48.76
53719;BME280;39616;48.872;9.390;2023-02-21T14:44:37;98369.16;;;15.12;48.77
53719;BME280;39616;48.872;9.390;2023-02-21T14:50:23;98356.34;;;15.04;48.95
53719;BME280;39616;48.872;9.390;2023-02-21T14:53:08;98357.81;;;14.93;49.06
53719;BME280;39616;48.872;9.390;2023-02-21T15:01:33;98355.41;;;14.91;49.64
53719;BME280;39616;48.872;9.390;2023-02-21T15:04:16;98347.84;;;14.88;50.03
53719;BME280;39616;48.872;9.390;2023-02-21T15:06:58;98344.19;;;14.84;49.85
53719;BME280;39616;48.872;9.390;2023-02-21T15:09:31;98338.41;;;14.77;49.72
53719;BME280;39616;48.872;9.390;2023-02-21T15:12:05;98342.09;;;14.72;49.91
53719;BME280;39616;48.872;9.390;2023-02-21T15:14:47;98340.19;;;14.73;50.36
53719;BME280;39616;48.872;9.390;2023-02-21T15:17:23;98338.72;;;14.67;50.19
53719;BME280;39616;48.872;9.390;2023-02-21T15:20:13;98337.94;;;14.66;49.82
53719;BME280;39616;48.872;9.390;2023-02-21T15:22:44;98331.34;;;14.67;50.02
53719;BME280;39616;48.872;9.390;2023-02-21T15:25:16;98330.72;;;14.62;50.23
53719;BME280;39616;48.872;9.390;2023-02-21T15:33:09;98331.34;;;14.50;50.59
53719;BME280;39616;48.872;9.390;2023-02-21T15:35:44;98327.00;;;14.49;50.72
53719;BME280;39616;48.872;9.390;2023-02-21T15:41:36;98323.31;;;14.45;51.30
53719;BME280;39616;48.872;9.390;2023-02-21T15:44:15;98320.75;;;14.40;51.24
53719;BME280;39616;48.872;9.390;2023-02-21T15:46:55;98319.47;;;14.37;51.00
53719;BME280;39616;48.872;9.390;2023-02-21T15:49:34;98310.78;;;14.35;51.04
53719;BME280;39616;48.872;9.390;2023-02-21T15:52:06;98313.84;;;14.34;51.54
53719;BME280;39616;48.872;9.390;2023-02-21T15:54:37;98310.16;;;14.30;51.60
53719;BME280;39616;48.872;9.390;2023-02-21T15:59:39;98301.63;;;14.14;52.15
53719;BME280;39616;48.872;9.390;2023-02-21T16:04:48;98296.97;;;13.97;52.32
53719;BME280;39616;48.872;9.390;2023-02-21T16:07:35;98290.69;;;13.88;52.64
53719;BME280;39616;48.872;9.390;2023-02-21T16:10:11;98296.47;;;13.77;53.19